Laredo International Airport
KLRD : now visible

Airfield :











YOU CAN JOIN US ON...

 
LOGIN :

Register | Disclaimer

   EN    FR    IT 

 









Legend :    VFR   Marginal VFR   IFR   Intensive IFR   Very Intensive IFR
Visi :
Ceiling :
>= 8 km
>= 3000ft
5 to 8 km
1000 to 3000 ft
1500m to 5 km
500 to 1000 ft
800 to 1500m
200 to 500 ft
< 800m
< 200 ft
Symbols :   Thunderstorms  Fog  Heavy snow  Heavy precipitations  Wind > 20 kt






- Airport Elevation : 508 ft
- IATA code : LRD


KLRD - Laredo International

CURRENT METAR :
  • 180056Z 12014G19KT 10SM CLR 33/19 A2992 RMK AO2 SLP129 T03330194

EXPIRED METARs :
  • 172356Z 14009KT 10SM CLR 34/18 A2991 RMK AO2 SLP122 T03440183 10367 20333 58008
  • 172256Z 09010KT 7SM FEW080 35/17 A2992 RMK AO2 WSHFT 2205 SLP126 T03500172
  • 172225Z 11014G18KT 10SM FEW075 35/18 A2992 RMK AO2 WSHFT 2205

TAF KLRD
Valid from the 18 at 00:00 until the 19 at 00:00 UTC


172329Z 1800/1824 09009KT P6SM FEW060
KZHU FIR / North America



MET'MAP, your aeronautical weather chart ! - Copyright ORBIFLY December 2007 - Disclaimer

ORBIFLY MET'MAP TEAM :

Programming & Development : Alexandra Zaïnal
Concept & original design : Baudouin d'Aumeries
Assistance for programming : Marc-Olivier Méhu
Technical & hardware support : Manuel Goepfert

Contact : metmap@orbifly.com




SOURCES & CREDITS :

   NOAA       Earth
Advisory